Terminal Aerodrome Forecast
Issued by NWS St Louis, MO

Home | Current Version | Previous Version | Text Only | Print | Product List | Glossary On
Versions: 1 2 3 4 5 6 7 8 9 10 11 12 13 14 15 16 17 18 19 20 21 22 23 24 25 26 27 28 29 30 31 32 33 34 35 36 37 38 39 40 41 42 43 44 45 46 47 48 49 50
000
FTUS43 KLSX 182126 AAA
TAFCOU
TAF AMD
KCOU 182126Z 1821/1918 11010G16KT 1SM BR OVC004
     FM182200 10011G19KT 4SM BR VCSH OVC004
      TEMPO 1822/1901 1SM BR
     FM190100 08011G17KT 3SM RA OVC004
     FM190500 06013G19KT 2SM RA OVC003
     FM190700 03015G23KT 1 1/2SM RASN OVC004
     FM190900 02017G25KT 1SM -SN OVC005
     FM191300 36024G31KT 1 1/2SM -SN BLSN OVC007=

USA.gov is the U.S. government's official web portal to all federal, state and local government web resources and services.